createdAt,value
2023-04-08T00:00:44.037Z,1015.36
2023-04-08T00:01:44.102Z,1015.32
2023-04-08T00:02:44.148Z,1015.30
2023-04-08T00:03:44.186Z,1015.34
2023-04-08T00:04:44.091Z,1015.27
2023-04-08T00:05:44.107Z,1015.32
2023-04-08T00:06:44.110Z,1015.33
2023-04-08T00:07:44.115Z,1015.30
2023-04-08T00:08:44.117Z,1015.31
2023-04-08T00:09:44.132Z,1015.31
2023-04-08T00:10:44.154Z,1015.30
2023-04-08T00:11:44.157Z,1015.27
2023-04-08T00:12:44.173Z,1015.30
2023-04-08T00:13:44.184Z,1015.30
2023-04-08T00:14:44.184Z,1015.30
2023-04-08T00:15:44.220Z,1015.30
2023-04-08T00:16:44.209Z,1015.30
2023-04-08T00:17:44.249Z,1015.30
2023-04-08T00:18:44.219Z,1015.30
2023-04-08T00:19:44.229Z,1015.29
2023-04-08T00:20:44.239Z,1015.30
2023-04-08T00:21:44.250Z,1015.30
2023-04-08T00:22:44.258Z,1015.33
2023-04-08T00:23:44.280Z,1015.32
2023-04-08T00:24:44.278Z,1015.33
2023-04-08T00:25:44.292Z,1015.38
2023-04-08T00:26:44.302Z,1015.34
2023-04-08T00:27:44.311Z,1015.37
2023-04-08T00:28:44.320Z,1015.34
2023-04-08T00:29:44.330Z,1015.29
2023-04-08T00:30:44.385Z,1015.31
2023-04-08T00:31:44.376Z,1015.29
2023-04-08T00:32:44.445Z,1015.33
2023-04-08T00:33:44.370Z,1015.35
2023-04-08T00:34:44.380Z,1015.33
2023-04-08T00:35:44.441Z,1015.29
2023-04-08T00:36:44.407Z,1015.30
2023-04-08T00:37:44.410Z,1015.35
2023-04-08T00:38:44.420Z,1015.25
2023-04-08T00:39:44.431Z,1015.30
2023-04-08T00:40:44.441Z,1015.30
2023-04-08T00:41:44.451Z,1015.30
2023-04-08T00:42:44.462Z,1015.28
2023-04-08T00:43:44.474Z,1015.30
2023-04-08T00:44:44.491Z,1015.34
2023-04-08T00:45:44.503Z,1015.32
2023-04-08T00:46:44.534Z,1015.31
2023-04-08T00:47:44.567Z,1015.33
2023-04-08T00:48:44.526Z,1015.41
2023-04-08T00:49:44.532Z,1015.39
2023-04-08T00:50:44.540Z,1015.36
2023-04-08T00:51:44.552Z,1015.35
2023-04-08T00:52:44.561Z,1015.37
2023-04-08T00:53:44.579Z,1015.37
2023-04-08T00:54:44.588Z,1015.37
2023-04-08T00:55:44.594Z,1015.37
2023-04-08T00:56:44.614Z,1015.35
2023-04-08T00:57:44.623Z,1015.33
2023-04-08T00:58:44.622Z,1015.30
2023-04-08T00:59:44.633Z,1015.28
2023-04-08T01:00:44.644Z,1015.31
2023-04-08T01:01:44.717Z,1015.29
2023-04-08T01:02:44.765Z,1015.33
2023-04-08T01:03:44.699Z,1015.35
2023-04-08T01:04:44.683Z,1015.28
2023-04-08T01:05:44.696Z,1015.23
2023-04-08T01:06:44.706Z,1015.25
2023-04-08T01:07:44.727Z,1015.23
2023-04-08T01:08:44.725Z,1015.27
2023-04-08T01:09:44.738Z,1015.24
2023-04-08T01:10:44.744Z,1015.26
2023-04-08T01:11:44.756Z,1015.24
2023-04-08T01:12:44.765Z,1015.23
2023-04-08T01:13:44.780Z,1015.25
2023-04-08T01:14:44.791Z,1015.22
2023-04-08T01:15:44.806Z,1015.26
2023-04-08T01:16:44.812Z,1015.32
2023-04-08T01:17:44.852Z,1015.31
2023-04-08T01:18:44.826Z,1015.34
2023-04-08T01:19:44.892Z,1015.31
2023-04-08T01:20:44.853Z,1015.34
2023-04-08T01:21:44.860Z,1015.31
2023-04-08T01:22:44.884Z,1015.38
2023-04-08T01:23:44.876Z,1015.33
2023-04-08T01:24:44.888Z,1015.38
2023-04-08T01:25:44.897Z,1015.32
2023-04-08T01:26:44.907Z,1015.36
2023-04-08T01:27:44.918Z,1015.37
2023-04-08T01:28:44.927Z,1015.35
2023-04-08T01:29:44.940Z,1015.33
2023-04-08T01:30:44.972Z,1015.39
2023-04-08T01:31:45.173Z,1015.39
2023-04-08T01:32:45.021Z,1015.41
2023-04-08T01:33:44.979Z,1015.45
2023-04-08T01:34:44.990Z,1015.44
2023-04-08T01:35:45.045Z,1015.42
2023-04-08T01:36:45.012Z,1015.40
2023-04-08T01:37:45.021Z,1015.46
2023-04-08T01:38:45.032Z,1015.45
2023-04-08T01:39:45.042Z,1015.51
2023-04-08T01:40:45.065Z,1015.50
2023-04-08T01:41:45.065Z,1015.47
2023-04-08T01:42:45.080Z,1015.50
2023-04-08T01:43:45.085Z,1015.49
2023-04-08T01:44:45.093Z,1015.48
2023-04-08T01:45:45.103Z,1015.51
2023-04-08T01:46:45.164Z,1015.42
2023-04-08T01:47:45.153Z,1015.47
2023-04-08T01:48:45.137Z,1015.48
2023-04-08T01:49:45.149Z,1015.48
2023-04-08T01:50:45.161Z,1015.46
2023-04-08T01:51:45.169Z,1015.48
2023-04-08T01:52:45.185Z,1015.50
2023-04-08T01:53:45.193Z,1015.52
2023-04-08T01:54:45.201Z,1015.52
2023-04-08T01:55:45.211Z,1015.58
2023-04-08T01:56:45.220Z,1015.54
2023-04-08T01:57:45.235Z,1015.55
2023-04-08T01:58:45.245Z,1015.57
2023-04-08T01:59:45.254Z,1015.60
2023-04-08T02:00:45.266Z,1015.58
2023-04-08T02:01:45.408Z,1015.57
2023-04-08T02:02:45.486Z,1015.59
2023-04-08T02:03:45.352Z,1015.60
2023-04-08T02:04:45.483Z,1015.61
2023-04-08T02:05:45.317Z,1015.59
2023-04-08T02:06:45.327Z,1015.60
2023-04-08T02:07:45.365Z,1015.62
2023-04-08T02:08:45.346Z,1015.57
2023-04-08T02:09:45.357Z,1015.56
2023-04-08T02:10:45.368Z,1015.49
2023-04-08T02:11:45.376Z,1015.50
2023-04-08T02:12:45.386Z,1015.48
2023-04-08T02:13:45.400Z,1015.46
2023-04-08T02:14:45.412Z,1015.43
2023-04-08T02:15:45.418Z,1015.42
2023-04-08T02:16:45.508Z,1015.45
2023-04-08T02:17:45.486Z,1015.46
2023-04-08T02:18:45.450Z,1015.50
2023-04-08T02:19:45.462Z,1015.49
2023-04-08T02:20:45.474Z,1015.53
2023-04-08T02:21:45.479Z,1015.53
2023-04-08T02:22:45.503Z,1015.57
2023-04-08T02:23:45.505Z,1015.54
2023-04-08T02:24:45.518Z,1015.62
2023-04-08T02:25:45.590Z,1015.59
2023-04-08T02:26:45.533Z,1015.74
2023-04-08T02:27:45.550Z,1015.70
2023-04-08T02:28:45.558Z,1015.73
2023-04-08T02:29:45.571Z,1015.69
2023-04-08T02:30:45.573Z,1015.71
2023-04-08T02:31:45.644Z,1015.73
2023-04-08T02:32:45.678Z,1015.70
2023-04-08T02:33:45.605Z,1015.71
2023-04-08T02:34:45.613Z,1015.72
2023-04-08T02:35:45.684Z,1015.72
2023-04-08T02:36:45.636Z,1015.74
2023-04-08T02:37:45.649Z,1015.74
2023-04-08T02:38:45.656Z,1015.73
2023-04-08T02:39:45.671Z,1015.75
2023-04-08T02:40:45.693Z,1015.77
2023-04-08T02:41:45.687Z,1015.76
2023-04-08T02:42:45.695Z,1015.76
2023-04-08T02:43:45.708Z,1015.74
2023-04-08T02:44:45.722Z,1015.80
2023-04-08T02:45:45.763Z,1015.77
2023-04-08T02:46:45.737Z,1015.73
2023-04-08T02:47:45.769Z,1015.83
2023-04-08T02:48:45.763Z,1015.83
2023-04-08T02:49:45.768Z,1015.83
2023-04-08T02:50:45.777Z,1015.82
2023-04-08T02:51:45.787Z,1015.83
2023-04-08T02:52:45.803Z,1015.82
2023-04-08T02:53:45.815Z,1015.83
2023-04-08T02:54:45.824Z,1015.83
2023-04-08T02:55:45.828Z,1015.85
2023-04-08T02:56:45.836Z,1015.87
2023-04-08T02:57:45.851Z,1015.86
2023-04-08T02:58:45.858Z,1015.90
2023-04-08T02:59:45.868Z,1015.87
2023-04-08T03:00:45.904Z,1015.83
2023-04-08T03:01:45.930Z,1015.85
2023-04-08T03:02:45.985Z,1015.84
2023-04-08T03:03:45.998Z,1015.84
2023-04-08T03:04:45.925Z,1015.85
2023-04-08T03:05:45.931Z,1015.82
2023-04-08T03:06:45.940Z,1015.86
2023-04-08T03:07:45.954Z,1015.88
2023-04-08T03:08:45.962Z,1015.86
2023-04-08T03:09:45.991Z,1015.84
2023-04-08T03:10:46.024Z,1015.89
2023-04-08T03:11:45.997Z,1015.87
2023-04-08T03:12:46.007Z,1015.91
2023-04-08T03:13:46.014Z,1015.90
2023-04-08T03:14:46.031Z,1015.91
2023-04-08T03:15:46.054Z,1015.94
2023-04-08T03:16:46.080Z,1015.92
2023-04-08T03:17:46.098Z,1015.91
2023-04-08T03:18:46.069Z,1015.93
2023-04-08T03:19:46.076Z,1015.94
2023-04-08T03:20:46.098Z,1015.96
2023-04-08T03:21:46.098Z,1015.99
2023-04-08T03:22:46.110Z,1015.94
2023-04-08T03:23:46.119Z,1015.97
2023-04-08T03:24:46.126Z,1015.98
2023-04-08T03:25:46.149Z,1015.93
2023-04-08T03:26:46.158Z,1016.01
2023-04-08T03:27:46.157Z,1015.98
2023-04-08T03:28:46.167Z,1015.98
2023-04-08T03:29:46.180Z,1016.02
2023-04-08T03:30:46.190Z,1016.02
2023-04-08T03:31:46.250Z,1016.02
2023-04-08T03:32:46.302Z,1016.02
2023-04-08T03:33:46.245Z,1016.00
2023-04-08T03:34:46.235Z,1016.02
2023-04-08T03:35:46.263Z,1016.04
2023-04-08T03:36:46.262Z,1016.05
2023-04-08T03:37:46.264Z,1016.05
2023-04-08T03:38:46.277Z,1016.06
2023-04-08T03:39:46.287Z,1016.08
2023-04-08T03:40:46.297Z,1016.08
2023-04-08T03:41:46.306Z,1016.05
2023-04-08T03:42:46.324Z,1016.05
2023-04-08T03:43:46.344Z,1016.07
2023-04-08T03:44:46.342Z,1016.06
2023-04-08T03:45:46.378Z,1016.10
2023-04-08T03:46:46.358Z,1016.12
2023-04-08T03:47:46.465Z,1016.14
2023-04-08T03:48:46.379Z,1016.13
2023-04-08T03:49:46.391Z,1016.15
2023-04-08T03:50:46.403Z,1016.12
2023-04-08T03:51:46.411Z,1016.13
2023-04-08T03:52:46.420Z,1016.12
2023-04-08T03:53:46.433Z,1016.19
2023-04-08T03:54:46.440Z,1016.20
2023-04-08T03:55:46.450Z,1016.17
2023-04-08T03:56:46.462Z,1016.18
2023-04-08T03:57:46.472Z,1016.21
2023-04-08T03:58:46.493Z,1016.24
2023-04-08T03:59:46.501Z,1016.18
2023-04-08T04:00:46.502Z,1016.20
2023-04-08T04:01:46.557Z,1016.24
2023-04-08T04:02:46.619Z,1016.19
2023-04-08T04:03:46.655Z,1016.16
2023-04-08T04:04:46.630Z,1016.19
2023-04-08T04:05:46.555Z,1016.19
2023-04-08T04:06:46.564Z,1016.22
2023-04-08T04:07:46.573Z,1016.22
2023-04-08T04:08:46.586Z,1016.24
2023-04-08T04:09:46.596Z,1016.24
2023-04-08T04:10:46.608Z,1016.27
2023-04-08T04:11:46.649Z,1016.28
2023-04-08T04:12:46.631Z,1016.28
2023-04-08T04:13:46.641Z,1016.31
2023-04-08T04:14:46.650Z,1016.36
2023-04-08T04:15:46.714Z,1016.39
2023-04-08T04:16:46.679Z,1016.43
2023-04-08T04:17:46.714Z,1016.42
2023-04-08T04:18:46.724Z,1016.42
2023-04-08T04:19:46.698Z,1016.38
2023-04-08T04:20:46.708Z,1016.38
2023-04-08T04:21:46.719Z,1016.38
2023-04-08T04:22:46.733Z,1016.36
2023-04-08T04:23:46.746Z,1016.38
2023-04-08T04:24:46.751Z,1016.38
2023-04-08T04:25:46.762Z,1016.41
2023-04-08T04:26:46.771Z,1016.38
2023-04-08T04:27:46.785Z,1016.42
2023-04-08T04:28:46.794Z,1016.41
2023-04-08T04:29:46.803Z,1016.41
2023-04-08T04:30:46.853Z,1016.41
2023-04-08T04:31:46.899Z,1016.42
2023-04-08T04:32:46.887Z,1016.49
2023-04-08T04:33:46.849Z,1016.50
2023-04-08T04:34:46.859Z,1016.48
2023-04-08T04:35:46.993Z,1016.52
2023-04-08T04:36:46.877Z,1016.57
2023-04-08T04:37:46.889Z,1016.58
2023-04-08T04:38:48.905Z,1016.61
2023-04-08T04:39:46.909Z,1016.60
2023-04-08T04:40:46.932Z,1016.65
2023-04-08T04:41:46.931Z,1016.65
2023-04-08T04:42:46.942Z,1016.70
2023-04-08T04:43:46.957Z,1016.66
2023-04-08T04:44:46.963Z,1016.65
2023-04-08T04:45:46.976Z,1016.66
2023-04-08T04:46:47.003Z,1016.66
2023-04-08T04:47:47.054Z,1016.67
2023-04-08T04:48:47.060Z,1016.68
2023-04-08T04:49:47.017Z,1016.67
2023-04-08T04:50:47.025Z,1016.64
2023-04-08T04:51:47.043Z,1016.63
2023-04-08T04:52:47.053Z,1016.64
2023-04-08T04:53:47.057Z,1016.64
2023-04-08T04:54:47.074Z,1016.64
2023-04-08T04:55:47.077Z,1016.67
2023-04-08T04:56:47.093Z,1016.67
2023-04-08T04:57:47.100Z,1016.72
2023-04-08T04:58:47.110Z,1016.74
2023-04-08T04:59:47.122Z,1016.76
2023-04-08T05:00:47.147Z,1016.81
2023-04-08T05:01:47.287Z,1016.81
2023-04-08T05:02:47.352Z,1016.81
2023-04-08T05:03:47.189Z,1016.81
2023-04-08T05:04:47.209Z,1016.83
2023-04-08T05:05:47.194Z,1016.79
2023-04-08T05:06:47.202Z,1016.79
2023-04-08T05:07:47.214Z,1016.81
2023-04-08T05:08:47.286Z,1016.87
2023-04-08T05:09:47.237Z,1016.89
2023-04-08T05:10:47.255Z,1016.88
2023-04-08T05:11:47.261Z,1016.87
2023-04-08T05:12:47.272Z,1016.90
2023-04-08T05:13:47.280Z,1016.93
2023-04-08T05:14:47.297Z,1016.91
2023-04-08T05:15:47.393Z,1016.94
2023-04-08T05:16:47.312Z,1016.96
2023-04-08T05:17:47.353Z,1016.97
2023-04-08T05:18:47.335Z,1016.95
2023-04-08T05:19:47.345Z,1016.96
2023-04-08T05:20:47.365Z,1017.02
2023-04-08T05:21:47.368Z,1017.02
2023-04-08T05:22:47.377Z,1017.03
2023-04-08T05:23:47.394Z,1017.02
2023-04-08T05:24:47.419Z,1017.04
2023-04-08T05:25:47.418Z,1017.06
2023-04-08T05:26:47.424Z,1017.07
2023-04-08T05:27:47.435Z,1017.06
2023-04-08T05:28:47.452Z,1017.10
2023-04-08T05:29:47.455Z,1017.10
2023-04-08T05:30:47.616Z,1017.07
2023-04-08T05:31:47.546Z,1017.07
2023-04-08T05:32:47.508Z,1017.12
2023-04-08T05:33:47.501Z,1017.13
2023-04-08T05:34:47.513Z,1017.12
2023-04-08T05:35:47.595Z,1017.10
2023-04-08T05:36:47.538Z,1017.06
2023-04-08T05:37:47.547Z,1017.08
2023-04-08T05:38:47.557Z,1017.13
2023-04-08T05:39:47.566Z,1017.16
2023-04-08T05:40:47.579Z,1017.17
2023-04-08T05:41:47.589Z,1017.16
2023-04-08T05:42:47.596Z,1017.16
2023-04-08T05:43:47.613Z,1017.16
2023-04-08T05:44:47.619Z,1017.15
2023-04-08T05:45:47.632Z,1017.22
2023-04-08T05:46:47.690Z,1017.24
2023-04-08T05:47:47.697Z,1017.28
2023-04-08T05:48:47.815Z,1017.29
2023-04-08T05:49:48.492Z,1017.35
2023-04-08T05:50:47.703Z,1017.39
2023-04-08T05:51:47.701Z,1017.36
2023-04-08T05:52:47.707Z,1017.39
2023-04-08T05:53:47.755Z,1017.39
2023-04-08T05:54:47.739Z,1017.42
2023-04-08T05:55:47.742Z,1017.45
2023-04-08T05:56:47.752Z,1017.43
2023-04-08T05:57:47.762Z,1017.41
2023-04-08T05:58:47.934Z,1017.41
2023-04-08T05:59:47.785Z,1017.41
2023-04-08T06:00:47.793Z,1017.42
2023-04-08T06:01:47.897Z,1017.36
2023-04-08T06:02:47.940Z,1017.41
2023-04-08T06:03:47.989Z,1017.42
2023-04-08T06:04:47.896Z,1017.44
2023-04-08T06:05:47.848Z,1017.41
2023-04-08T06:06:47.865Z,1017.45
2023-04-08T06:07:47.878Z,1017.44
2023-04-08T06:08:47.894Z,1017.52
2023-04-08T06:09:47.887Z,1017.45
2023-04-08T06:10:47.903Z,1017.45
2023-04-08T06:11:47.924Z,1017.46
2023-04-08T06:12:47.939Z,1017.48
2023-04-08T06:13:47.949Z,1017.46
2023-04-08T06:14:47.945Z,1017.45
2023-04-08T06:15:47.961Z,1017.44
2023-04-08T06:16:47.979Z,1017.49
2023-04-08T06:17:48.054Z,1017.46
2023-04-08T06:18:48.272Z,1017.50
2023-04-08T06:19:48.002Z,1017.52
2023-04-08T06:20:48.013Z,1017.53
2023-04-08T06:21:48.026Z,1017.53
2023-04-08T06:22:48.032Z,1017.60
2023-04-08T06:23:48.047Z,1017.59
2023-04-08T06:24:48.058Z,1017.57
2023-04-08T06:25:48.069Z,1017.59
2023-04-08T06:26:48.102Z,1017.62
2023-04-08T06:27:48.099Z,1017.61
2023-04-08T06:28:48.246Z,1017.68
2023-04-08T06:29:48.118Z,1017.72
2023-04-08T06:30:48.129Z,1017.73
2023-04-08T06:31:48.167Z,1017.68
2023-04-08T06:32:48.180Z,1017.67
2023-04-08T06:33:48.169Z,1017.72
2023-04-08T06:34:48.173Z,1017.69
2023-04-08T06:35:48.223Z,1017.74
2023-04-08T06:36:48.202Z,1017.71
2023-04-08T06:37:48.216Z,1017.71
2023-04-08T06:38:48.411Z,1017.72
2023-04-08T06:39:48.248Z,1017.77
2023-04-08T06:40:48.252Z,1017.78
2023-04-08T06:41:48.258Z,1017.80
2023-04-08T06:42:48.272Z,1017.84
2023-04-08T06:43:48.287Z,1017.78
2023-04-08T06:44:48.414Z,1017.81
2023-04-08T06:45:48.326Z,1017.86
2023-04-08T06:46:48.325Z,1017.91
2023-04-08T06:47:48.354Z,1017.88
2023-04-08T06:48:48.547Z,1017.93
2023-04-08T06:49:48.365Z,1017.95
2023-04-08T06:50:48.372Z,1017.99
2023-04-08T06:51:48.379Z,1017.99
2023-04-08T06:52:48.394Z,1018.04
2023-04-08T06:53:48.405Z,1018.08
2023-04-08T06:54:48.416Z,1018.06
2023-04-08T06:55:48.433Z,1018.03
2023-04-08T06:56:48.441Z,1018.06
2023-04-08T06:57:48.453Z,1018.07
2023-04-08T06:58:48.593Z,1018.12
2023-04-08T06:59:48.483Z,1018.11
2023-04-08T07:00:48.489Z,1018.15
2023-04-08T07:01:48.633Z,1018.12
2023-04-08T07:02:48.612Z,1018.15
2023-04-08T07:03:48.575Z,1018.19
2023-04-08T07:04:48.542Z,1018.19
2023-04-08T07:05:48.557Z,1018.19
2023-04-08T07:06:48.568Z,1018.18
2023-04-08T07:07:48.583Z,1018.15
2023-04-08T07:08:48.880Z,1018.20
2023-04-08T07:09:48.609Z,1018.15
2023-04-08T07:10:48.620Z,1018.17
2023-04-08T07:11:48.633Z,1018.21
2023-04-08T07:12:48.647Z,1018.20
2023-04-08T07:13:48.655Z,1018.21
2023-04-08T07:14:48.675Z,1018.23
2023-04-08T07:15:48.689Z,1018.20
2023-04-08T07:16:48.804Z,1018.17
2023-04-08T07:17:48.726Z,1018.22
2023-04-08T07:18:48.873Z,1018.21
2023-04-08T07:19:48.741Z,1018.22
2023-04-08T07:20:48.745Z,1018.28
2023-04-08T07:21:48.759Z,1018.27
2023-04-08T07:22:48.778Z,1018.26
2023-04-08T07:23:48.784Z,1018.29
2023-04-08T07:24:48.798Z,1018.28
2023-04-08T07:25:48.810Z,1018.30
2023-04-08T07:26:48.825Z,1018.33
2023-04-08T07:27:48.835Z,1018.32
2023-04-08T07:28:49.124Z,1018.30
2023-04-08T07:29:48.860Z,1018.30
2023-04-08T07:30:48.900Z,1018.29
2023-04-08T07:31:48.886Z,1018.32
2023-04-08T07:32:48.948Z,1018.30
2023-04-08T07:33:48.921Z,1018.37
2023-04-08T07:34:48.956Z,1018.38
2023-04-08T07:35:48.977Z,1018.33
2023-04-08T07:36:48.956Z,1018.42
2023-04-08T07:37:48.975Z,1018.42
2023-04-08T07:38:49.183Z,1018.38
2023-04-08T07:39:48.996Z,1018.45
2023-04-08T07:40:49.008Z,1018.45
2023-04-08T07:41:49.028Z,1018.49
2023-04-08T07:42:49.036Z,1018.49
2023-04-08T07:43:49.052Z,1018.50
2023-04-08T07:44:49.061Z,1018.55
2023-04-08T07:45:49.109Z,1018.63
2023-04-08T07:46:49.093Z,1018.61
2023-04-08T07:47:49.162Z,1018.62
2023-04-08T07:48:49.387Z,1018.63
2023-04-08T07:49:49.134Z,1018.58
2023-04-08T07:51:08.502Z,1018.57
2023-04-08T07:51:49.163Z,1018.57
2023-04-08T07:52:49.174Z,1018.58
2023-04-08T07:53:49.187Z,1018.56
2023-04-08T07:54:49.202Z,1018.61
2023-04-08T07:55:49.216Z,1018.62
2023-04-08T07:56:49.233Z,1018.55
2023-04-08T07:57:49.243Z,1018.56
2023-04-08T07:58:50.604Z,1018.56
2023-04-08T07:59:49.270Z,1018.60
2023-04-08T08:00:49.285Z,1018.61
2023-04-08T08:01:49.344Z,1018.64
2023-04-08T08:02:49.408Z,1018.58
2023-04-08T08:03:49.611Z,1018.55
2023-04-08T08:04:49.354Z,1018.65
2023-04-08T08:05:49.358Z,1018.64
2023-04-08T08:06:49.371Z,1018.56
2023-04-08T08:07:49.384Z,1018.58
2023-04-08T08:08:49.400Z,1018.59
2023-04-08T08:09:49.417Z,1018.65
2023-04-08T08:10:49.427Z,1018.62
2023-04-08T08:11:49.445Z,1018.66
2023-04-08T08:12:49.455Z,1018.68
2023-04-08T08:13:49.558Z,1018.67
2023-04-08T08:14:49.483Z,1018.65
2023-04-08T08:15:49.550Z,1018.69
2023-04-08T08:16:49.515Z,1018.74
2023-04-08T08:17:49.611Z,1018.76
2023-04-08T08:18:49.563Z,1018.75
2023-04-08T08:19:49.554Z,1018.76
2023-04-08T08:20:49.569Z,1018.76
2023-04-08T08:21:49.586Z,1018.80
2023-04-08T08:22:57.358Z,1018.80
2023-04-08T08:23:49.816Z,1018.76
2023-04-08T08:24:49.625Z,1018.80
2023-04-08T08:25:49.641Z,1018.78
2023-04-08T08:26:49.668Z,1018.71
2023-04-08T08:27:49.687Z,1018.76
2023-04-08T08:28:49.684Z,1018.82
2023-04-08T08:29:49.697Z,1018.84
2023-04-08T08:30:49.721Z,1018.82
2023-04-08T08:31:49.788Z,1018.90
2023-04-08T08:32:49.798Z,1018.82
2023-04-08T08:33:50.128Z,1018.82
2023-04-08T08:34:49.790Z,1018.82
2023-04-08T08:35:49.825Z,1018.83
2023-04-08T08:36:49.800Z,1018.84
2023-04-08T08:37:49.823Z,1018.84
2023-04-08T08:38:49.849Z,1018.92
2023-04-08T08:39:49.851Z,1018.95
2023-04-08T08:40:49.858Z,1018.90
2023-04-08T08:41:49.879Z,1018.86
2023-04-08T08:42:49.893Z,1018.86
2023-04-08T08:43:50.191Z,1018.87
2023-04-08T08:44:49.931Z,1018.92
2023-04-08T08:45:49.939Z,1018.97
2023-04-08T08:46:50.013Z,1018.98
2023-04-08T08:47:51.225Z,1018.97
2023-04-08T08:48:49.977Z,1018.96
2023-04-08T08:49:49.997Z,1018.94
2023-04-08T08:50:50.015Z,1018.92
2023-04-08T08:51:50.039Z,1018.96
2023-04-08T08:52:50.042Z,1019.01
2023-04-08T08:53:50.061Z,1019.05
2023-04-08T08:54:50.081Z,1018.98
2023-04-08T08:56:05.615Z,1019.00
2023-04-08T08:56:50.096Z,1018.98
2023-04-08T08:57:50.114Z,1018.98
2023-04-08T08:58:50.132Z,1019.01
2023-04-08T08:59:50.146Z,1018.99
2023-04-08T09:00:50.160Z,1019.04
2023-04-08T09:01:50.257Z,1019.08
2023-04-08T09:02:50.291Z,1019.10
2023-04-08T09:03:50.629Z,1019.08
2023-04-08T09:04:50.368Z,1019.14
2023-04-08T09:05:50.254Z,1019.23
2023-04-08T09:06:50.388Z,1019.26
2023-04-08T09:07:50.264Z,1019.16
2023-04-08T09:08:50.282Z,1019.19
2023-04-08T09:09:50.298Z,1019.22
2023-04-08T09:10:50.311Z,1019.23
2023-04-08T09:11:50.325Z,1019.20
2023-04-08T09:12:50.341Z,1019.20
2023-04-08T09:13:50.652Z,1019.26
2023-04-08T09:14:50.375Z,1019.21
2023-04-08T09:15:50.403Z,1019.20
2023-04-08T09:16:50.468Z,1019.19
2023-04-08T09:17:50.438Z,1019.31
2023-04-08T09:18:50.438Z,1019.25
2023-04-08T09:19:50.454Z,1019.26
2023-04-08T09:20:50.476Z,1019.21
2023-04-08T09:21:50.488Z,1019.23
2023-04-08T09:22:50.504Z,1019.28
2023-04-08T09:23:50.894Z,1019.25
2023-04-08T09:24:50.536Z,1019.20
2023-04-08T09:25:50.552Z,1019.27
2023-04-08T09:26:50.570Z,1019.25
2023-04-08T09:27:50.585Z,1019.26
2023-04-08T09:28:50.600Z,1019.26
2023-04-08T09:29:50.618Z,1019.28
2023-04-08T09:30:50.636Z,1019.25
2023-04-08T09:31:50.677Z,1019.28
2023-04-08T09:32:50.705Z,1019.24
2023-04-08T09:33:50.885Z,1019.29
2023-04-08T09:34:50.698Z,1019.31
2023-04-08T09:35:50.717Z,1019.29
2023-04-08T09:36:50.727Z,1019.28
2023-04-08T09:37:50.742Z,1019.32
2023-04-08T09:38:50.760Z,1019.29
2023-04-08T09:39:50.793Z,1019.30
2023-04-08T09:40:50.792Z,1019.30
2023-04-08T09:41:50.814Z,1019.31
2023-04-08T09:42:50.822Z,1019.35
2023-04-08T09:43:51.049Z,1019.44
2023-04-08T09:44:50.850Z,1019.41
2023-04-08T09:45:50.913Z,1019.38
2023-04-08T09:46:50.884Z,1019.44
2023-04-08T09:47:50.903Z,1019.42
2023-04-08T09:48:50.906Z,1019.39
2023-04-08T09:49:50.923Z,1019.37
2023-04-08T09:50:50.936Z,1019.40
2023-04-08T09:51:50.972Z,1019.40
2023-04-08T09:52:50.966Z,1019.38
2023-04-08T09:53:51.106Z,1019.38
2023-04-08T09:54:50.998Z,1019.36
2023-04-08T09:55:51.010Z,1019.42
2023-04-08T09:56:51.026Z,1019.36
2023-04-08T09:57:51.047Z,1019.37
2023-04-08T09:58:51.055Z,1019.49
2023-04-08T09:59:51.070Z,1019.46
2023-04-08T10:00:51.130Z,1019.46
2023-04-08T10:01:51.240Z,1019.43
2023-04-08T10:02:51.283Z,1019.47
2023-04-08T10:03:51.560Z,1019.45
2023-04-08T10:04:51.257Z,1019.46
2023-04-08T10:05:51.159Z,1019.42
2023-04-08T10:06:51.171Z,1019.43
2023-04-08T10:07:51.186Z,1019.42
2023-04-08T10:08:51.201Z,1019.44
2023-04-08T10:09:51.216Z,1019.48
2023-04-08T10:10:51.234Z,1019.49
2023-04-08T10:11:51.254Z,1019.51
2023-04-08T10:12:51.272Z,1019.48
2023-04-08T10:13:51.567Z,1019.57
2023-04-08T10:14:51.286Z,1019.64
2023-04-08T10:15:51.304Z,1019.67
2023-04-08T10:16:51.349Z,1019.67
2023-04-08T10:17:51.356Z,1019.72
2023-04-08T10:18:51.342Z,1019.73
2023-04-08T10:19:51.361Z,1019.75
2023-04-08T10:20:51.377Z,1019.72
2023-04-08T10:21:51.388Z,1019.69
2023-04-08T10:22:51.407Z,1019.62
2023-04-08T10:23:51.485Z,1019.67
2023-04-08T10:24:51.434Z,1019.62
2023-04-08T10:25:51.453Z,1019.68
2023-04-08T10:26:51.465Z,1019.61
2023-04-08T10:27:51.483Z,1019.49
2023-04-08T10:28:51.494Z,1019.43
2023-04-08T10:29:51.513Z,1019.43
2023-04-08T10:30:51.533Z,1019.41
2023-04-08T10:31:51.581Z,1019.41
2023-04-08T10:32:51.597Z,1019.42
2023-04-08T10:33:51.707Z,1019.41
2023-04-08T10:34:51.596Z,1019.42
2023-04-08T10:35:51.645Z,1019.47
2023-04-08T10:36:51.629Z,1019.53
2023-04-08T10:37:51.644Z,1019.51
2023-04-08T10:38:51.659Z,1019.51
2023-04-08T10:39:51.691Z,1019.54
2023-04-08T10:40:51.708Z,1019.53
2023-04-08T10:41:51.711Z,1019.60
2023-04-08T10:42:51.726Z,1019.63
2023-04-08T10:43:51.896Z,1019.66
2023-04-08T10:44:51.768Z,1019.68
2023-04-08T10:45:51.817Z,1019.59
2023-04-08T10:46:51.793Z,1019.61
2023-04-08T10:47:51.848Z,1019.61
2023-04-08T10:48:51.827Z,1019.63
2023-04-08T10:49:51.842Z,1019.51
2023-04-08T10:50:51.859Z,1019.49
2023-04-08T10:51:51.875Z,1019.54
2023-04-08T10:52:51.913Z,1019.58
2023-04-08T10:53:52.111Z,1019.61
2023-04-08T10:54:51.935Z,1019.53
2023-04-08T10:55:51.969Z,1019.56
2023-04-08T10:56:51.958Z,1019.48
2023-04-08T10:57:51.996Z,1019.54
2023-04-08T10:58:51.992Z,1019.62
2023-04-08T10:59:52.027Z,1019.65
2023-04-08T11:00:52.027Z,1019.65
2023-04-08T11:01:52.193Z,1019.62
2023-04-08T11:02:52.192Z,1019.55
2023-04-08T11:03:52.458Z,1019.51
2023-04-08T11:04:52.098Z,1019.52
2023-04-08T11:05:52.114Z,1019.55
2023-04-08T11:06:52.141Z,1019.48
2023-04-08T11:07:52.146Z,1019.47
2023-04-08T11:08:52.186Z,1019.48
2023-04-08T11:09:52.186Z,1019.54
2023-04-08T11:10:52.197Z,1019.53
2023-04-08T11:11:52.235Z,1019.53
2023-04-08T11:12:52.234Z,1019.51
2023-04-08T11:13:53.736Z,1019.56
2023-04-08T11:14:52.266Z,1019.57
2023-04-08T11:15:52.342Z,1019.58
2023-04-08T11:16:52.304Z,1019.56
2023-04-08T11:17:52.358Z,1019.56
2023-04-08T11:18:52.336Z,1019.55
2023-04-08T11:19:52.352Z,1019.52
2023-04-08T11:20:52.367Z,1019.57
2023-04-08T11:21:52.394Z,1019.60
2023-04-08T11:22:52.404Z,1019.58
2023-04-08T11:23:52.606Z,1019.60
2023-04-08T11:24:52.439Z,1019.56
2023-04-08T11:25:52.460Z,1019.58
2023-04-08T11:26:52.479Z,1019.59
2023-04-08T11:27:52.486Z,1019.61
2023-04-08T11:28:52.543Z,1019.62
2023-04-08T11:29:52.528Z,1019.66
2023-04-08T11:30:52.549Z,1019.64
2023-04-08T11:31:52.565Z,1019.60
2023-04-08T11:32:52.607Z,1019.60
2023-04-08T11:33:52.782Z,1019.61
2023-04-08T11:34:52.605Z,1019.58
2023-04-08T11:35:52.634Z,1019.55
2023-04-08T11:36:52.664Z,1019.57
2023-04-08T11:37:52.657Z,1019.56
2023-04-08T11:38:52.679Z,1019.55
2023-04-08T11:39:52.694Z,1019.54
2023-04-08T11:40:52.712Z,1019.53
2023-04-08T11:41:52.728Z,1019.48
2023-04-08T11:42:52.744Z,1019.51
2023-04-08T11:43:52.895Z,1019.50
2023-04-08T11:44:52.783Z,1019.52
2023-04-08T11:45:52.796Z,1019.48
2023-04-08T11:46:52.927Z,1019.50
2023-04-08T11:47:52.895Z,1019.51
2023-04-08T11:48:52.846Z,1019.55
2023-04-08T11:49:52.862Z,1019.57
2023-04-08T11:50:52.878Z,1019.55
2023-04-08T11:51:52.894Z,1019.58
2023-04-08T11:52:52.913Z,1019.62
2023-04-08T11:53:55.435Z,1019.64
2023-04-08T11:54:52.948Z,1019.64
2023-04-08T11:55:52.971Z,1019.58
2023-04-08T11:56:52.982Z,1019.57
2023-04-08T11:57:52.997Z,1019.58
2023-04-08T11:58:53.011Z,1019.63
2023-04-08T11:59:53.029Z,1019.65
2023-04-08T12:00:53.046Z,1019.60
2023-04-08T12:01:53.101Z,1019.61
2023-04-08T12:02:53.180Z,1019.59
2023-04-08T12:03:53.352Z,1019.58
2023-04-08T12:04:53.174Z,1019.63
2023-04-08T12:05:53.133Z,1019.64